sensor_id;sensor_type;location;lat;lon;timestamp;temperature;humidity
14873;DHT22;7528;48.576;19.122;2022-10-16T00:01:58;17.40;77.30
14873;DHT22;7528;48.576;19.122;2022-10-16T00:07:01;17.40;77.20
14873;DHT22;7528;48.576;19.122;2022-10-16T00:12:03;17.30;77.50
14873;DHT22;7528;48.576;19.122;2022-10-16T00:17:09;17.40;77.20
14873;DHT22;7528;48.576;19.122;2022-10-16T00:22:11;17.40;76.80
14873;DHT22;7528;48.576;19.122;2022-10-16T00:27:14;17.20;77.60
14873;DHT22;7528;48.576;19.122;2022-10-16T00:32:18;17.20;78.00
14873;DHT22;7528;48.576;19.122;2022-10-16T00:37:21;17.30;77.90
14873;DHT22;7528;48.576;19.122;2022-10-16T00:42:23;17.30;77.70
14873;DHT22;7528;48.576;19.122;2022-10-16T00:47:30;17.20;78.00
14873;DHT22;7528;48.576;19.122;2022-10-16T00:52:34;17.20;78.50
14873;DHT22;7528;48.576;19.122;2022-10-16T00:57:37;17.20;78.20
14873;DHT22;7528;48.576;19.122;2022-10-16T01:02:41;17.30;78.30
14873;DHT22;7528;48.576;19.122;2022-10-16T01:07:49;17.30;78.10
14873;DHT22;7528;48.576;19.122;2022-10-16T01:12:59;17.30;77.90
14873;DHT22;7528;48.576;19.122;2022-10-16T01:18:08;17.30;77.90
14873;DHT22;7528;48.576;19.122;2022-10-16T01:23:20;17.40;77.80
14873;DHT22;7528;48.576;19.122;2022-10-16T01:28:29;17.30;77.50
14873;DHT22;7528;48.576;19.122;2022-10-16T01:33:39;17.30;77.70
14873;DHT22;7528;48.576;19.122;2022-10-16T01:38:47;17.20;77.60
14873;DHT22;7528;48.576;19.122;2022-10-16T01:43:56;17.20;77.50
14873;DHT22;7528;48.576;19.122;2022-10-16T01:49:02;17.20;77.60
14873;DHT22;7528;48.576;19.122;2022-10-16T01:54:07;17.20;77.90
14873;DHT22;7528;48.576;19.122;2022-10-16T01:59:14;17.10;78.10
14873;DHT22;7528;48.576;19.122;2022-10-16T02:04:20;17.20;78.10
14873;DHT22;7528;48.576;19.122;2022-10-16T02:09:25;17.10;78.00
14873;DHT22;7528;48.576;19.122;2022-10-16T02:14:29;17.20;77.90
14873;DHT22;7528;48.576;19.122;2022-10-16T02:19:31;17.10;78.00
14873;DHT22;7528;48.576;19.122;2022-10-16T02:24:39;17.20;77.70
14873;DHT22;7528;48.576;19.122;2022-10-16T02:29:48;17.10;77.80
14873;DHT22;7528;48.576;19.122;2022-10-16T02:34:51;17.10;78.40
14873;DHT22;7528;48.576;19.122;2022-10-16T02:39:55;17.10;78.40
14873;DHT22;7528;48.576;19.122;2022-10-16T02:44:59;17.10;78.50
14873;DHT22;7528;48.576;19.122;2022-10-16T02:50:01;17.10;78.20
14873;DHT22;7528;48.576;19.122;2022-10-16T02:55:05;17.00;78.30
14873;DHT22;7528;48.576;19.122;2022-10-16T03:00:12;17.00;78.40
14873;DHT22;7528;48.576;19.122;2022-10-16T03:05:16;17.00;78.70
14873;DHT22;7528;48.576;19.122;2022-10-16T03:10:18;17.10;78.50
14873;DHT22;7528;48.576;19.122;2022-10-16T03:15:22;17.10;78.60
14873;DHT22;7528;48.576;19.122;2022-10-16T03:20:24;17.10;78.50
14873;DHT22;7528;48.576;19.122;2022-10-16T03:25:27;17.10;78.60
14873;DHT22;7528;48.576;19.122;2022-10-16T03:30:31;17.00;79.00
14873;DHT22;7528;48.576;19.122;2022-10-16T03:35:33;17.00;78.80
14873;DHT22;7528;48.576;19.122;2022-10-16T03:40:36;16.90;78.90
14873;DHT22;7528;48.576;19.122;2022-10-16T03:45:39;17.00;79.00
14873;DHT22;7528;48.576;19.122;2022-10-16T03:50:42;17.00;79.30
14873;DHT22;7528;48.576;19.122;2022-10-16T03:55:44;17.00;79.00
14873;DHT22;7528;48.576;19.122;2022-10-16T04:00:48;16.90;79.60
14873;DHT22;7528;48.576;19.122;2022-10-16T04:05:51;16.90;79.50
14873;DHT22;7528;48.576;19.122;2022-10-16T04:10:53;16.80;79.80
14873;DHT22;7528;48.576;19.122;2022-10-16T04:15:57;16.80;79.60
14873;DHT22;7528;48.576;19.122;2022-10-16T04:21:02;16.90;79.60
14873;DHT22;7528;48.576;19.122;2022-10-16T04:26:05;16.90;79.10
14873;DHT22;7528;48.576;19.122;2022-10-16T04:31:09;16.90;79.10
14873;DHT22;7528;48.576;19.122;2022-10-16T04:36:12;16.80;79.20
14873;DHT22;7528;48.576;19.122;2022-10-16T04:41:14;16.80;79.50
14873;DHT22;7528;48.576;19.122;2022-10-16T04:46:18;16.90;79.30
14873;DHT22;7528;48.576;19.122;2022-10-16T04:51:20;16.90;79.30
14873;DHT22;7528;48.576;19.122;2022-10-16T04:56:23;16.90;79.30
14873;DHT22;7528;48.576;19.122;2022-10-16T05:01:27;16.90;79.60
14873;DHT22;7528;48.576;19.122;2022-10-16T05:06:29;16.80;79.50
14873;DHT22;7528;48.576;19.122;2022-10-16T05:11:32;16.90;79.70
14873;DHT22;7528;48.576;19.122;2022-10-16T05:16:36;16.90;79.70
14873;DHT22;7528;48.576;19.122;2022-10-16T05:21:38;16.90;79.80
14873;DHT22;7528;48.576;19.122;2022-10-16T05:26:41;16.80;80.20
14873;DHT22;7528;48.576;19.122;2022-10-16T05:31:45;16.70;80.70
14873;DHT22;7528;48.576;19.122;2022-10-16T05:36:47;16.80;80.70
14873;DHT22;7528;48.576;19.122;2022-10-16T05:41:49;16.80;80.70
14873;DHT22;7528;48.576;19.122;2022-10-16T05:46:54;16.90;80.60
14873;DHT22;7528;48.576;19.122;2022-10-16T05:51:57;16.90;80.00
14873;DHT22;7528;48.576;19.122;2022-10-16T05:56:59;16.90;80.40
14873;DHT22;7528;48.576;19.122;2022-10-16T06:02:04;16.90;80.20
14873;DHT22;7528;48.576;19.122;2022-10-16T06:07:06;17.00;80.20
14873;DHT22;7528;48.576;19.122;2022-10-16T06:12:09;17.00;80.10
14873;DHT22;7528;48.576;19.122;2022-10-16T06:17:13;17.10;80.80
14873;DHT22;7528;48.576;19.122;2022-10-16T06:22:15;17.20;79.50
14873;DHT22;7528;48.576;19.122;2022-10-16T06:27:18;17.30;78.90
14873;DHT22;7528;48.576;19.122;2022-10-16T06:32:23;17.30;79.20
14873;DHT22;7528;48.576;19.122;2022-10-16T06:37:26;17.30;79.60
14873;DHT22;7528;48.576;19.122;2022-10-16T06:42:29;17.30;80.30
14873;DHT22;7528;48.576;19.122;2022-10-16T06:47:33;17.40;79.90
14873;DHT22;7528;48.576;19.122;2022-10-16T06:52:35;17.40;79.40
14873;DHT22;7528;48.576;19.122;2022-10-16T06:57:38;17.60;78.60
14873;DHT22;7528;48.576;19.122;2022-10-16T07:02:41;17.60;78.10
14873;DHT22;7528;48.576;19.122;2022-10-16T07:07:44;17.70;76.70
14873;DHT22;7528;48.576;19.122;2022-10-16T07:12:46;17.80;76.10
14873;DHT22;7528;48.576;19.122;2022-10-16T07:17:50;17.90;76.40
14873;DHT22;7528;48.576;19.122;2022-10-16T07:22:52;18.00;75.40
14873;DHT22;7528;48.576;19.122;2022-10-16T07:27:55;18.00;75.00
14873;DHT22;7528;48.576;19.122;2022-10-16T07:32:59;17.90;75.80
14873;DHT22;7528;48.576;19.122;2022-10-16T07:38:01;18.00;75.80
14873;DHT22;7528;48.576;19.122;2022-10-16T07:43:03;18.20;75.60
14873;DHT22;7528;48.576;19.122;2022-10-16T07:48:08;18.40;73.90
14873;DHT22;7528;48.576;19.122;2022-10-16T07:53:10;18.70;73.10
14873;DHT22;7528;48.576;19.122;2022-10-16T07:58:13;18.80;70.30
14873;DHT22;7528;48.576;19.122;2022-10-16T08:03:17;19.10;70.90
14873;DHT22;7528;48.576;19.122;2022-10-16T08:08:20;19.40;67.70
14873;DHT22;7528;48.576;19.122;2022-10-16T08:13:22;19.90;66.60
14873;DHT22;7528;48.576;19.122;2022-10-16T08:18:26;21.50;61.20
14873;DHT22;7528;48.576;19.122;2022-10-16T08:23:29;22.50;56.50
14873;DHT22;7528;48.576;19.122;2022-10-16T08:28:32;22.30;56.20
14873;DHT22;7528;48.576;19.122;2022-10-16T08:33:36;22.10;55.70
14873;DHT22;7528;48.576;19.122;2022-10-16T08:38:38;21.90;56.80
14873;DHT22;7528;48.576;19.122;2022-10-16T08:44:03;21.70;57.20
14873;DHT22;7528;48.576;19.122;2022-10-16T08:49:11;21.60;56.80
14873;DHT22;7528;48.576;19.122;2022-10-16T08:54:23;21.40;57.30
14873;DHT22;7528;48.576;19.122;2022-10-16T08:59:28;21.20;58.80
14873;DHT22;7528;48.576;19.122;2022-10-16T09:05:00;21.00;59.00
14873;DHT22;7528;48.576;19.122;2022-10-16T09:10:15;20.80;59.80
14873;DHT22;7528;48.576;19.122;2022-10-16T09:15:30;20.70;59.60
14873;DHT22;7528;48.576;19.122;2022-10-16T09:20:42;20.70;59.70
14873;DHT22;7528;48.576;19.122;2022-10-16T09:25:48;20.70;59.70
14873;DHT22;7528;48.576;19.122;2022-10-16T09:30:51;20.60;59.30
14873;DHT22;7528;48.576;19.122;2022-10-16T09:35:56;20.70;59.60
14873;DHT22;7528;48.576;19.122;2022-10-16T09:41:01;20.80;59.60
14873;DHT22;7528;48.576;19.122;2022-10-16T09:46:06;20.90;59.00
14873;DHT22;7528;48.576;19.122;2022-10-16T09:51:19;20.80;58.40
14873;DHT22;7528;48.576;19.122;2022-10-16T09:56:24;20.90;58.60
14873;DHT22;7528;48.576;19.122;2022-10-16T10:01:30;20.90;59.30
14873;DHT22;7528;48.576;19.122;2022-10-16T10:06:36;21.10;58.30
14873;DHT22;7528;48.576;19.122;2022-10-16T10:11:48;21.30;57.60
14873;DHT22;7528;48.576;19.122;2022-10-16T10:16:52;21.30;57.70
14873;DHT22;7528;48.576;19.122;2022-10-16T10:21:56;21.70;57.80
14873;DHT22;7528;48.576;19.122;2022-10-16T10:27:03;21.80;55.90
14873;DHT22;7528;48.576;19.122;2022-10-16T10:32:16;21.80;56.40
14873;DHT22;7528;48.576;19.122;2022-10-16T10:37:34;21.80;55.20
14873;DHT22;7528;48.576;19.122;2022-10-16T10:42:46;21.80;55.70
14873;DHT22;7528;48.576;19.122;2022-10-16T10:48:12;21.70;55.00
14873;DHT22;7528;48.576;19.122;2022-10-16T10:53:28;21.60;54.60
14873;DHT22;7528;48.576;19.122;2022-10-16T10:58:54;21.50;55.50
14873;DHT22;7528;48.576;19.122;2022-10-16T11:04:23;21.50;55.30
14873;DHT22;7528;48.576;19.122;2022-10-16T11:09:33;21.60;55.40
14873;DHT22;7528;48.576;19.122;2022-10-16T11:14:42;21.60;55.10
14873;DHT22;7528;48.576;19.122;2022-10-16T11:19:48;21.60;54.90
14873;DHT22;7528;48.576;19.122;2022-10-16T11:25:02;21.70;55.60
14873;DHT22;7528;48.576;19.122;2022-10-16T11:30:14;21.70;55.50
14873;DHT22;7528;48.576;19.122;2022-10-16T11:35:22;21.70;55.60
14873;DHT22;7528;48.576;19.122;2022-10-16T11:40:30;22.00;55.70
14873;DHT22;7528;48.576;19.122;2022-10-16T11:45:39;22.70;53.00
14873;DHT22;7528;48.576;19.122;2022-10-16T11:50:46;23.60;51.10
14873;DHT22;7528;48.576;19.122;2022-10-16T11:55:52;24.80;49.10
14873;DHT22;7528;48.576;19.122;2022-10-16T12:01:00;25.20;48.60
14873;DHT22;7528;48.576;19.122;2022-10-16T12:06:16;25.20;48.90
14873;DHT22;7528;48.576;19.122;2022-10-16T12:11:32;25.10;47.00
14873;DHT22;7528;48.576;19.122;2022-10-16T12:16:37;25.10;48.30
14873;DHT22;7528;48.576;19.122;2022-10-16T12:21:40;24.90;48.00
14873;DHT22;7528;48.576;19.122;2022-10-16T12:26:52;24.70;48.10
14873;DHT22;7528;48.576;19.122;2022-10-16T12:31:55;24.80;48.60
14873;DHT22;7528;48.576;19.122;2022-10-16T12:37:12;24.60;48.10
14873;DHT22;7528;48.576;19.122;2022-10-16T12:42:35;24.30;48.90
14873;DHT22;7528;48.576;19.122;2022-10-16T12:47:48;24.30;49.30
14873;DHT22;7528;48.576;19.122;2022-10-16T12:52:51;24.30;49.40
14873;DHT22;7528;48.576;19.122;2022-10-16T12:58:09;24.70;48.30
14873;DHT22;7528;48.576;19.122;2022-10-16T13:03:31;25.60;45.90
14873;DHT22;7528;48.576;19.122;2022-10-16T13:08:59;25.70;46.00
14873;DHT22;7528;48.576;19.122;2022-10-16T13:14:20;25.90;43.70
14873;DHT22;7528;48.576;19.122;2022-10-16T13:19:29;26.50;43.90
14873;DHT22;7528;48.576;19.122;2022-10-16T13:24:55;27.70;41.10
14873;DHT22;7528;48.576;19.122;2022-10-16T13:30:12;29.10;39.80
14873;DHT22;7528;48.576;19.122;2022-10-16T13:35:23;29.70;38.00
14873;DHT22;7528;48.576;19.122;2022-10-16T13:40:26;30.00;36.90
14873;DHT22;7528;48.576;19.122;2022-10-16T13:45:30;30.30;36.40
14873;DHT22;7528;48.576;19.122;2022-10-16T13:50:32;30.50;35.90
14873;DHT22;7528;48.576;19.122;2022-10-16T13:55:35;29.90;36.40
14873;DHT22;7528;48.576;19.122;2022-10-16T14:00:40;30.20;35.80
14873;DHT22;7528;48.576;19.122;2022-10-16T14:05:45;30.10;36.30
14873;DHT22;7528;48.576;19.122;2022-10-16T14:10:50;29.40;36.90
14873;DHT22;7528;48.576;19.122;2022-10-16T14:15:54;28.90;37.20
14873;DHT22;7528;48.576;19.122;2022-10-16T14:21:04;28.00;39.10
14873;DHT22;7528;48.576;19.122;2022-10-16T14:26:16;27.10;40.70
14873;DHT22;7528;48.576;19.122;2022-10-16T14:31:27;26.60;43.00
14873;DHT22;7528;48.576;19.122;2022-10-16T14:36:30;26.20;42.80
14873;DHT22;7528;48.576;19.122;2022-10-16T14:41:41;25.90;42.40
14873;DHT22;7528;48.576;19.122;2022-10-16T14:46:47;25.60;45.10
14873;DHT22;7528;48.576;19.122;2022-10-16T14:51:49;25.30;46.40
14873;DHT22;7528;48.576;19.122;2022-10-16T14:56:55;25.10;47.10
14873;DHT22;7528;48.576;19.122;2022-10-16T15:01:59;24.80;47.50
14873;DHT22;7528;48.576;19.122;2022-10-16T15:07:02;24.70;48.30
14873;DHT22;7528;48.576;19.122;2022-10-16T15:12:05;24.50;48.90
14873;DHT22;7528;48.576;19.122;2022-10-16T15:17:10;24.10;49.40
14873;DHT22;7528;48.576;19.122;2022-10-16T15:22:13;23.90;50.30
14873;DHT22;7528;48.576;19.122;2022-10-16T15:27:15;23.60;50.20
14873;DHT22;7528;48.576;19.122;2022-10-16T15:32:19;23.40;50.30
14873;DHT22;7528;48.576;19.122;2022-10-16T15:37:21;23.20;50.80
14873;DHT22;7528;48.576;19.122;2022-10-16T15:42:24;23.00;51.00
14873;DHT22;7528;48.576;19.122;2022-10-16T15:47:28;22.70;51.60
14873;DHT22;7528;48.576;19.122;2022-10-16T15:52:30;22.40;52.60
14873;DHT22;7528;48.576;19.122;2022-10-16T15:57:32;22.20;53.30
14873;DHT22;7528;48.576;19.122;2022-10-16T16:02:36;22.10;53.60
14873;DHT22;7528;48.576;19.122;2022-10-16T16:07:39;21.90;54.10
14873;DHT22;7528;48.576;19.122;2022-10-16T16:12:42;21.60;54.80
14873;DHT22;7528;48.576;19.122;2022-10-16T16:17:46;21.40;55.00
14873;DHT22;7528;48.576;19.122;2022-10-16T16:22:48;21.10;55.90
14873;DHT22;7528;48.576;19.122;2022-10-16T16:27:51;20.90;56.50
14873;DHT22;7528;48.576;19.122;2022-10-16T16:32:55;20.80;57.00
14873;DHT22;7528;48.576;19.122;2022-10-16T16:37:57;20.60;57.10
14873;DHT22;7528;48.576;19.122;2022-10-16T16:43:00;20.50;57.10
14873;DHT22;7528;48.576;19.122;2022-10-16T16:48:05;20.30;57.80
14873;DHT22;7528;48.576;19.122;2022-10-16T16:53:08;20.20;58.20
14873;DHT22;7528;48.576;19.122;2022-10-16T16:58:10;20.00;58.60
14873;DHT22;7528;48.576;19.122;2022-10-16T17:03:14;19.80;59.10
14873;DHT22;7528;48.576;19.122;2022-10-16T17:08:16;19.60;59.70
14873;DHT22;7528;48.576;19.122;2022-10-16T17:13:19;19.50;60.00
14873;DHT22;7528;48.576;19.122;2022-10-16T17:18:23;19.40;60.70
14873;DHT22;7528;48.576;19.122;2022-10-16T17:23:26;19.30;61.00
14873;DHT22;7528;48.576;19.122;2022-10-16T17:28:28;19.10;61.60
14873;DHT22;7528;48.576;19.122;2022-10-16T17:33:32;19.00;61.80
14873;DHT22;7528;48.576;19.122;2022-10-16T17:38:34;18.80;62.50
14873;DHT22;7528;48.576;19.122;2022-10-16T17:43:37;18.60;63.00
14873;DHT22;7528;48.576;19.122;2022-10-16T17:48:42;18.60;63.40
14873;DHT22;7528;48.576;19.122;2022-10-16T17:53:47;18.50;63.50
14873;DHT22;7528;48.576;19.122;2022-10-16T17:58:51;18.40;63.70
14873;DHT22;7528;48.576;19.122;2022-10-16T18:03:57;18.30;63.80
14873;DHT22;7528;48.576;19.122;2022-10-16T18:09:00;18.10;64.30
14873;DHT22;7528;48.576;19.122;2022-10-16T18:14:03;18.00;64.80
14873;DHT22;7528;48.576;19.122;2022-10-16T18:19:08;17.90;65.00
14873;DHT22;7528;48.576;19.122;2022-10-16T18:24:11;17.90;65.00
14873;DHT22;7528;48.576;19.122;2022-10-16T18:29:15;17.80;65.00
14873;DHT22;7528;48.576;19.122;2022-10-16T18:34:19;17.70;65.30
14873;DHT22;7528;48.576;19.122;2022-10-16T18:39:21;17.60;65.50
14873;DHT22;7528;48.576;19.122;2022-10-16T18:44:25;17.40;65.90
14873;DHT22;7528;48.576;19.122;2022-10-16T18:49:29;17.20;67.00
14873;DHT22;7528;48.576;19.122;2022-10-16T18:54:31;17.10;67.20
14873;DHT22;7528;48.576;19.122;2022-10-16T18:59:34;17.00;67.40
14873;DHT22;7528;48.576;19.122;2022-10-16T19:04:37;16.80;67.90
14873;DHT22;7528;48.576;19.122;2022-10-16T19:09:40;16.80;67.70
14873;DHT22;7528;48.576;19.122;2022-10-16T19:14:42;16.80;67.60
14873;DHT22;7528;48.576;19.122;2022-10-16T19:19:46;16.70;67.50
14873;DHT22;7528;48.576;19.122;2022-10-16T19:24:49;16.70;67.80
14873;DHT22;7528;48.576;19.122;2022-10-16T19:29:51;16.60;67.70
14873;DHT22;7528;48.576;19.122;2022-10-16T19:34:55;16.50;67.80
14873;DHT22;7528;48.576;19.122;2022-10-16T19:39:58;16.40;68.00
14873;DHT22;7528;48.576;19.122;2022-10-16T19:45:00;16.40;68.00
14873;DHT22;7528;48.576;19.122;2022-10-16T19:50:05;16.40;67.80
14873;DHT22;7528;48.576;19.122;2022-10-16T19:55:09;16.30;68.10
14873;DHT22;7528;48.576;19.122;2022-10-16T20:00:12;16.20;68.20
14873;DHT22;7528;48.576;19.122;2022-10-16T20:05:17;16.10;68.60
14873;DHT22;7528;48.576;19.122;2022-10-16T20:10:19;16.10;68.70
14873;DHT22;7528;48.576;19.122;2022-10-16T20:15:21;16.00;68.30
14873;DHT22;7528;48.576;19.122;2022-10-16T20:20:25;15.90;68.10
14873;DHT22;7528;48.576;19.122;2022-10-16T20:25:28;15.80;68.60
14873;DHT22;7528;48.576;19.122;2022-10-16T20:30:33;15.70;68.80
14873;DHT22;7528;48.576;19.122;2022-10-16T20:35:38;15.70;68.60
14873;DHT22;7528;48.576;19.122;2022-10-16T20:40:41;15.60;68.80
14873;DHT22;7528;48.576;19.122;2022-10-16T20:45:45;15.60;68.80
14873;DHT22;7528;48.576;19.122;2022-10-16T20:50:48;15.40;69.20
14873;DHT22;7528;48.576;19.122;2022-10-16T20:55:51;15.50;69.70
14873;DHT22;7528;48.576;19.122;2022-10-16T21:00:53;15.50;69.50
14873;DHT22;7528;48.576;19.122;2022-10-16T21:05:57;15.50;69.30
14873;DHT22;7528;48.576;19.122;2022-10-16T21:10:59;15.40;69.00
14873;DHT22;7528;48.576;19.122;2022-10-16T21:16:02;15.40;69.30
14873;DHT22;7528;48.576;19.122;2022-10-16T21:21:06;15.40;68.90
14873;DHT22;7528;48.576;19.122;2022-10-16T21:26:08;15.20;69.00
14873;DHT22;7528;48.576;19.122;2022-10-16T21:31:12;15.10;69.50
14873;DHT22;7528;48.576;19.122;2022-10-16T21:36:19;15.10;69.50
14873;DHT22;7528;48.576;19.122;2022-10-16T21:41:23;15.00;70.30
14873;DHT22;7528;48.576;19.122;2022-10-16T21:46:27;14.90;70.00
14873;DHT22;7528;48.576;19.122;2022-10-16T21:51:34;14.90;69.90
14873;DHT22;7528;48.576;19.122;2022-10-16T21:56:37;14.90;70.10
14873;DHT22;7528;48.576;19.122;2022-10-16T22:01:40;14.80;69.60
14873;DHT22;7528;48.576;19.122;2022-10-16T22:06:44;14.80;69.70
14873;DHT22;7528;48.576;19.122;2022-10-16T22:11:47;14.60;70.40
14873;DHT22;7528;48.576;19.122;2022-10-16T22:16:50;14.60;70.00
14873;DHT22;7528;48.576;19.122;2022-10-16T22:21:54;14.50;70.10
14873;DHT22;7528;48.576;19.122;2022-10-16T22:26:57;14.50;70.10
14873;DHT22;7528;48.576;19.122;2022-10-16T22:31:59;14.50;70.40
14873;DHT22;7528;48.576;19.122;2022-10-16T22:37:03;14.40;70.80
14873;DHT22;7528;48.576;19.122;2022-10-16T22:42:06;14.40;70.40
14873;DHT22;7528;48.576;19.122;2022-10-16T22:47:08;14.40;70.10
14873;DHT22;7528;48.576;19.122;2022-10-16T22:52:12;14.40;70.30
14873;DHT22;7528;48.576;19.122;2022-10-16T22:57:14;14.40;70.30
14873;DHT22;7528;48.576;19.122;2022-10-16T23:02:17;14.30;70.60
14873;DHT22;7528;48.576;19.122;2022-10-16T23:07:21;14.30;70.40
14873;DHT22;7528;48.576;19.122;2022-10-16T23:12:23;14.20;70.30
14873;DHT22;7528;48.576;19.122;2022-10-16T23:17:26;14.10;70.30
14873;DHT22;7528;48.576;19.122;2022-10-16T23:22:30;14.10;70.30
14873;DHT22;7528;48.576;19.122;2022-10-16T23:27:33;14.10;70.20
14873;DHT22;7528;48.576;19.122;2022-10-16T23:32:35;14.10;70.60
14873;DHT22;7528;48.576;19.122;2022-10-16T23:37:39;14.00;70.60
14873;DHT22;7528;48.576;19.122;2022-10-16T23:42:41;14.00;70.30
14873;DHT22;7528;48.576;19.122;2022-10-16T23:47:44;13.80;70.40
14873;DHT22;7528;48.576;19.122;2022-10-16T23:52:47;13.80;70.10
14873;DHT22;7528;48.576;19.122;2022-10-16T23:57:50;13.80;70.50
